Circleville, Utah
Current Conditions -  °F | °C
As of 1:53 AM on Friday 28 Nov 2014 (Local Time) from KBCE Reporting Station
Clear Clear  
Wind Chill: 11°   Ceiling: Unl
Heat Index: 18°   Visibility: 10mi
Dew Point: 12°   Wind: 5mph
Humidity: 78%   Direction: 250°WSW
Pressure: 30.32"   Gusts: NA
Location:  38.17°N, 112.27°W
Report Text: KBCE 280853Z AUTO 25004KT 10SM CLR M08/M11 A3032 RMK AO2 SLP224 T10781111 58010
Loading
Personal Weather Stations






























Interactive Weather Map New forecast layout! Learn more

10-Day Weather Forecast

Advertisements
Track Severe Weather on mobile